AirNav   TITAN Aviation Fuels
 
 671 users online  

C08 Silver West Airport
Westcliffe, Colorado, USA

GOING TO WESTCLIFFE?


FAA INFORMATION EFFECTIVE 15 JULY 2021

Location

FAA Identifier: C08
Lat/Long: 38-00-47.8000N 105-22-27.3800W
38-00.796667N 105-22.456333W
38.0132778,-105.3742722
(estimated)
Elevation: 8290 ft. / 2527 m (estimated)
Variation: 11E (1985)
From city: 9 miles SE of WESTCLIFFE, CO
Time zone: UTC -6 (UTC -7 during Standard Time)
Zip code: 81252

Airport Operations

Airport use: Open to the public
Activation date: 04/1973
Control tower: no
ARTCC: DENVER CENTER
FSS: DENVER FLIGHT SERVICE STATION
NOTAMs facility: DEN (NOTAM-D service available)
Attendance: UNATNDD
Wind indicator: yes
Segmented circle: yes

Airport Communications

CTAF: 122.9

Airport Services

Fuel available: 100LL
100LL:24 HR SELF SERVE FUEL.
Parking: tiedowns
Airframe service: NONE
Powerplant service: NONE
Bottled oxygen: NONE
Bulk oxygen: NONE

Runway Information

Runway 13/31

Dimensions: 6954 x 55 ft. / 2120 x 17 m
Surface: asphalt, in good condition
HAS VARYING TERRAIN HEIGHTS FROM -5 TO +12 FT ALONG FULL LENGTH OF RY INSIDE OF PRIMARY SURFACE.
RUNWAY 13  RUNWAY 31
Latitude: 38-01.282500N38-00.310833N
Longitude: 105-22.840000W105-22.072667W
Elevation: 8238.0 ft.8274.0 ft.
Traffic pattern: rightleft
Markings: basic, in good conditionbasic, in good condition
Touchdown point: yes, no lightsyes, no lights
Obstructions: none10 ft. gnd, 201 ft. from runway
HAS +12 FT TERRAIN 120 FT FM THLD 0B.

Airport Ownership and Management from official FAA records

Ownership: Publicly-owned
Owner: CUSTER COUNTY, COLORADO
360 CR 310, P.O. BOX 150
WESTCLIFFE, CO 81252
Phone 719-783-2695
Manager: ROBERT JOLEY
P.O. BOX 150
WESTCLIFFE, CO 81252
Phone 719-783-2286

Airport Operational Statistics

Aircraft based on the field: 25
Single engine airplanes: 23
Jet airplanes: 1
Gliders airplanes: 1
  • FREQUENT GLIDER USE.
    
Aircraft operations: avg 89/week *
58% local general aviation
39% transient general aviation
4% military
* for 12-month period ending 31 December 2017

Additional Remarks

RY 13/31 HAS +15 FT HWY 120 FT WEST OF & PARALLEL TO CNTRLN FULL LENGTH, +4 FT FENCE 100 FT WEST OF & PARALLEL TO CNTRLN FULL LENGTH.
OCCASIONAL DEER & ELK ON RY 13/31.
PUBLIC USE TELEPHONE AND FREE WIFI AVBL.
BE ALERT; INTENSIVE USAF STUDENT TRAINING IN VICINITY OF COLORADO SPRINGS & PUEBLO COLORADO.
FOR CD CTC DENVER ARTCC AT 303-651-4257.

Instrument Procedures

There are no published instrument procedures at C08.

Some nearby airports with instrument procedures:

1V6 - Fremont County Airport (28 nm NE)
4V1 - Spanish Peaks Airfield (34 nm SE)
KALS - San Luis Valley Regional Airport/Bergman Field (42 nm SW)
KMVI - Monte Vista Municipal Airport (43 nm SW)
KPUB - Pueblo Memorial Airport (45 nm E)
 
Loc | Ops | Rwys | IFR | FBO | Links
Com | Nav | Svcs | Stats | Notes

AirBoss

 
Area around C08 (Silver West Airport)
 
Road maps at: MapQuest Bing Google
 
Aerial photo
WARNING: Photo may not be current or correct
Aerial photo of C08 (Silver West Airport)
Photo by David Newcomer
Photo taken 31-Mar-2012
from 13,500' looking northwest.

Do you have a better or more recent aerial photo of Silver West Airport that you would like to share? If so, please send us your photo.

 
Sectional chart

 
Airport distance calculator
Flying to Silver West Airport? Find the distance to fly.

From to C08

Sunrise and sunset
Times for 27-Jul-2021
 Local
(UTC-6)
 Zulu
(UTC)
Morning civil twilight05:3211:32
Sunrise06:0112:01
Sunset20:1502:15
Evening civil twilight20:4402:44

Current date and time
Zulu (UTC)  27-Jul-2021 11:28:25
Local (UTC-6)  27-Jul-2021 05:28:25
 
METAR
K1V6 
28nm NE 
271115Z AUTO 29008KT 10SM CLR 18/12 A3018 RMK AO2
KVTP 
32nm S 
271115Z AUTO 28006KT 10SM CLR 10/06 A3054 RMK AO2
K04V 
38nm W 
271114Z AUTO 33010KT 10SM CLR 12/10 A3040 RMK AO2
KALS 
42nm SW 
271052Z AUTO 24003KT 10SM CLR 09/08 A3037 RMK AO2 SLP192 T00890083
KPUB 
44nm E 
271053Z AUTO 29004KT 10SM CLR 17/15 A3013 RMK AO2 SLP131 T01720150
KANK 
45nm NW 
271115Z AUTO 27005KT 10SM CLR 13/09 A3046 RMK AO1 T01340091
KFCS 
49nm NE 
271056Z 32008KT 10SM CLR 15/12 A3020 RMK AO2A SLP164 T01540118 $
KRCV 
50nm W 
271115Z AUTO 27007KT 10SM CLR 12/08 A3042 RMK AO2 T01180079
TAF
KALS 
42nm SW 
270535Z 2706/2806 VRB05KT P6SM FEW200 FM272100 12010KT P6SM VCSH SCT100 FM280300 18010KT P6SM SCT100 SCT200
KPUB 
44nm E 
270535Z 2706/2806 VRB05KT P6SM FEW200 FM271800 11007KT P6SM SKC FM272000 09011KT P6SM FEW100 FM280300 03006KT P6SM FEW100 SCT200
KFCS 
49nm NE 
270500Z 2705/2811 VRB06KT 9999 FEW050 QNH3018INS BECMG 2715/2716 12012G18KT 9999 FEW050 QNH3017INS BECMG 2804/2805 VRB06KT 9999 FEW050 QNH3022INS TX31/2722Z TN16/2712Z
NOTAMs
Click for the latest NOTAMs
NOTAMs are issued by the DoD/FAA and will open in a separate window not controlled by AirNav.

 

 
 

FBO, Fuel Providers, and Aircraft Ground Support

  
 Business Name 
 
 Contact 
 
 Services / Description 
 
Fuel Prices
 
Comments
  
 SilverWest/Custer County Airport
122.90
719-783-2695
[web site]
[email]
Silver West Airport is located in the beautiful rocky mountains. At the base of both the Sangre de Cristo Mountain Range and the Wet Mountian Range.

More info about SilverWest/Custer County Airport
Phillips 66
100LL
SS $4.59 
 Updated 06-Jul-2021
 
   write
SS=Self service
Update Fuel Prices
 

Would you like to see your business listed on this page?

 If your business provides an interesting product or service to pilots, flight crews, aircraft, or users of the Silver West Airport, you should consider listing it here.  To start the listing process, click on the button below
 
Add a business
 

Other Pages about Silver West Airport

silverwestairport.custercountygov.com
 
Update a link
 
Copyright © AirNav, LLC. All rights reserved. Privacy Policy  Contact